sensor_id;sensor_type;location;lat;lon;timestamp;P1;durP1;ratioP1;P2;durP2;ratioP2
11675;SDS011;5894;42.768;23.404;2024-02-23T00:01:56;12.30;;;7.80;;
11675;SDS011;5894;42.768;23.404;2024-02-23T00:04:23;12.57;;;7.73;;
11675;SDS011;5894;42.768;23.404;2024-02-23T00:06:51;15.40;;;9.67;;
11675;SDS011;5894;42.768;23.404;2024-02-23T00:09:18;14.07;;;8.03;;
11675;SDS011;5894;42.768;23.404;2024-02-23T00:11:45;14.60;;;9.07;;
11675;SDS011;5894;42.768;23.404;2024-02-23T00:14:15;11.73;;;8.00;;
11675;SDS011;5894;42.768;23.404;2024-02-23T00:16:43;12.57;;;7.83;;
11675;SDS011;5894;42.768;23.404;2024-02-23T00:19:10;13.10;;;9.50;;
11675;SDS011;5894;42.768;23.404;2024-02-23T00:21:37;13.73;;;9.67;;
11675;SDS011;5894;42.768;23.404;2024-02-23T00:24:06;12.87;;;9.33;;
11675;SDS011;5894;42.768;23.404;2024-02-23T00:26:34;14.50;;;8.57;;
11675;SDS011;5894;42.768;23.404;2024-02-23T00:29:02;12.53;;;9.23;;
11675;SDS011;5894;42.768;23.404;2024-02-23T00:31:29;18.97;;;9.73;;
11675;SDS011;5894;42.768;23.404;2024-02-23T00:33:56;13.80;;;9.73;;
11675;SDS011;5894;42.768;23.404;2024-02-23T00:36:23;12.97;;;9.63;;
11675;SDS011;5894;42.768;23.404;2024-02-23T00:38:50;14.20;;;10.27;;
11675;SDS011;5894;42.768;23.404;2024-02-23T00:41:19;16.10;;;10.37;;
11675;SDS011;5894;42.768;23.404;2024-02-23T00:43:46;15.23;;;10.93;;
11675;SDS011;5894;42.768;23.404;2024-02-23T00:46:13;18.63;;;11.00;;
11675;SDS011;5894;42.768;23.404;2024-02-23T00:48:41;13.73;;;10.17;;
11675;SDS011;5894;42.768;23.404;2024-02-23T00:51:08;15.93;;;11.07;;
11675;SDS011;5894;42.768;23.404;2024-02-23T00:53:35;23.53;;;13.53;;
11675;SDS011;5894;42.768;23.404;2024-02-23T00:56:02;21.73;;;13.53;;
11675;SDS011;5894;42.768;23.404;2024-02-23T00:58:31;20.77;;;13.67;;
11675;SDS011;5894;42.768;23.404;2024-02-23T01:00:58;18.03;;;12.23;;
11675;SDS011;5894;42.768;23.404;2024-02-23T01:03:26;19.47;;;11.90;;
11675;SDS011;5894;42.768;23.404;2024-02-23T01:05:53;19.63;;;12.83;;
11675;SDS011;5894;42.768;23.404;2024-02-23T01:08:20;17.67;;;12.33;;
11675;SDS011;5894;42.768;23.404;2024-02-23T01:10:47;16.10;;;11.87;;
11675;SDS011;5894;42.768;23.404;2024-02-23T01:13:14;17.53;;;12.80;;
11675;SDS011;5894;42.768;23.404;2024-02-23T01:15:42;17.10;;;12.13;;
11675;SDS011;5894;42.768;23.404;2024-02-23T01:18:09;18.07;;;12.53;;
11675;SDS011;5894;42.768;23.404;2024-02-23T01:20:36;18.57;;;12.63;;
11675;SDS011;5894;42.768;23.404;2024-02-23T01:23:03;21.70;;;12.90;;
11675;SDS011;5894;42.768;23.404;2024-02-23T01:25:30;20.67;;;13.73;;
11675;SDS011;5894;42.768;23.404;2024-02-23T01:28:00;20.63;;;13.60;;
11675;SDS011;5894;42.768;23.404;2024-02-23T01:30:28;19.10;;;13.47;;
11675;SDS011;5894;42.768;23.404;2024-02-23T01:32:57;20.00;;;13.80;;
11675;SDS011;5894;42.768;23.404;2024-02-23T01:35:23;26.20;;;15.97;;
11675;SDS011;5894;42.768;23.404;2024-02-23T01:37:50;25.13;;;15.70;;
11675;SDS011;5894;42.768;23.404;2024-02-23T01:40:17;18.43;;;12.80;;
11675;SDS011;5894;42.768;23.404;2024-02-23T01:42:44;20.97;;;14.27;;
11675;SDS011;5894;42.768;23.404;2024-02-23T01:45:12;18.23;;;12.57;;
11675;SDS011;5894;42.768;23.404;2024-02-23T01:47:39;16.83;;;11.33;;
11675;SDS011;5894;42.768;23.404;2024-02-23T01:50:08;16.57;;;11.27;;
11675;SDS011;5894;42.768;23.404;2024-02-23T01:52:38;17.33;;;11.43;;
11675;SDS011;5894;42.768;23.404;2024-02-23T01:55:05;16.07;;;11.07;;
11675;SDS011;5894;42.768;23.404;2024-02-23T01:57:32;17.07;;;11.90;;
11675;SDS011;5894;42.768;23.404;2024-02-23T02:00:00;17.00;;;12.43;;
11675;SDS011;5894;42.768;23.404;2024-02-23T02:02:29;18.90;;;12.53;;
11675;SDS011;5894;42.768;23.404;2024-02-23T02:04:57;19.73;;;12.87;;
11675;SDS011;5894;42.768;23.404;2024-02-23T02:07:25;16.97;;;12.23;;
11675;SDS011;5894;42.768;23.404;2024-02-23T02:09:52;17.10;;;12.10;;
11675;SDS011;5894;42.768;23.404;2024-02-23T02:12:26;19.87;;;12.47;;
11675;SDS011;5894;42.768;23.404;2024-02-23T02:14:53;16.30;;;11.33;;
11675;SDS011;5894;42.768;23.404;2024-02-23T02:17:21;16.83;;;11.83;;
11675;SDS011;5894;42.768;23.404;2024-02-23T02:19:48;19.47;;;12.13;;
11675;SDS011;5894;42.768;23.404;2024-02-23T02:22:15;16.33;;;10.20;;
11675;SDS011;5894;42.768;23.404;2024-02-23T02:24:43;13.80;;;9.13;;
11675;SDS011;5894;42.768;23.404;2024-02-23T02:27:12;10.63;;;8.00;;
11675;SDS011;5894;42.768;23.404;2024-02-23T02:29:39;10.10;;;7.23;;
11675;SDS011;5894;42.768;23.404;2024-02-23T02:32:06;9.00;;;6.43;;
11675;SDS011;5894;42.768;23.404;2024-02-23T02:34:34;9.47;;;6.83;;
11675;SDS011;5894;42.768;23.404;2024-02-23T02:37:01;12.87;;;8.43;;
11675;SDS011;5894;42.768;23.404;2024-02-23T02:39:28;12.47;;;8.53;;
11675;SDS011;5894;42.768;23.404;2024-02-23T02:41:56;11.33;;;8.23;;
11675;SDS011;5894;42.768;23.404;2024-02-23T02:44:23;11.63;;;8.37;;
11675;SDS011;5894;42.768;23.404;2024-02-23T02:46:51;11.33;;;8.37;;
11675;SDS011;5894;42.768;23.404;2024-02-23T02:49:18;12.50;;;7.90;;
11675;SDS011;5894;42.768;23.404;2024-02-23T02:51:45;11.07;;;7.47;;
11675;SDS011;5894;42.768;23.404;2024-02-23T02:54:12;11.10;;;7.67;;
11675;SDS011;5894;42.768;23.404;2024-02-23T02:56:41;8.77;;;6.57;;
11675;SDS011;5894;42.768;23.404;2024-02-23T02:59:10;8.87;;;6.67;;
11675;SDS011;5894;42.768;23.404;2024-02-23T03:01:37;8.30;;;6.60;;
11675;SDS011;5894;42.768;23.404;2024-02-23T03:04:05;7.97;;;6.50;;
11675;SDS011;5894;42.768;23.404;2024-02-23T03:06:32;9.53;;;6.83;;
11675;SDS011;5894;42.768;23.404;2024-02-23T03:08:59;10.90;;;6.63;;
11675;SDS011;5894;42.768;23.404;2024-02-23T03:11:25;8.07;;;6.50;;
11675;SDS011;5894;42.768;23.404;2024-02-23T03:13:52;9.17;;;6.77;;
11675;SDS011;5894;42.768;23.404;2024-02-23T03:16:21;8.73;;;6.67;;
11675;SDS011;5894;42.768;23.404;2024-02-23T03:18:51;9.13;;;6.50;;
11675;SDS011;5894;42.768;23.404;2024-02-23T03:21:19;8.27;;;6.53;;
11675;SDS011;5894;42.768;23.404;2024-02-23T03:23:46;9.67;;;7.23;;
11675;SDS011;5894;42.768;23.404;2024-02-23T03:26:13;10.83;;;6.23;;
11675;SDS011;5894;42.768;23.404;2024-02-23T03:28:42;9.00;;;7.00;;
11675;SDS011;5894;42.768;23.404;2024-02-23T03:31:09;9.80;;;7.77;;
11675;SDS011;5894;42.768;23.404;2024-02-23T03:33:37;12.10;;;8.40;;
11675;SDS011;5894;42.768;23.404;2024-02-23T03:36:05;11.77;;;8.27;;
11675;SDS011;5894;42.768;23.404;2024-02-23T03:38:32;13.97;;;9.13;;
11675;SDS011;5894;42.768;23.404;2024-02-23T03:40:59;13.63;;;8.83;;
11675;SDS011;5894;42.768;23.404;2024-02-23T03:43:26;14.97;;;9.87;;
11675;SDS011;5894;42.768;23.404;2024-02-23T03:45:53;21.83;;;12.60;;
11675;SDS011;5894;42.768;23.404;2024-02-23T03:48:21;24.97;;;12.70;;
11675;SDS011;5894;42.768;23.404;2024-02-23T03:50:49;20.77;;;11.47;;
11675;SDS011;5894;42.768;23.404;2024-02-23T03:53:16;15.90;;;10.33;;
11675;SDS011;5894;42.768;23.404;2024-02-23T03:55:43;13.03;;;9.13;;
11675;SDS011;5894;42.768;23.404;2024-02-23T03:58:11;12.30;;;8.40;;
11675;SDS011;5894;42.768;23.404;2024-02-23T04:00:38;12.67;;;8.50;;
11675;SDS011;5894;42.768;23.404;2024-02-23T04:03:05;13.57;;;9.10;;
11675;SDS011;5894;42.768;23.404;2024-02-23T04:05:32;13.10;;;8.83;;
11675;SDS011;5894;42.768;23.404;2024-02-23T04:08:01;12.17;;;9.07;;
11675;SDS011;5894;42.768;23.404;2024-02-23T04:10:27;14.40;;;9.97;;
11675;SDS011;5894;42.768;23.404;2024-02-23T04:12:55;14.87;;;9.67;;
11675;SDS011;5894;42.768;23.404;2024-02-23T04:15:22;23.63;;;15.17;;
11675;SDS011;5894;42.768;23.404;2024-02-23T04:17:49;26.97;;;14.43;;
11675;SDS011;5894;42.768;23.404;2024-02-23T04:20:16;27.40;;;16.40;;
11675;SDS011;5894;42.768;23.404;2024-02-23T04:22:43;27.43;;;15.20;;
11675;SDS011;5894;42.768;23.404;2024-02-23T04:25:11;17.43;;;12.80;;
11675;SDS011;5894;42.768;23.404;2024-02-23T04:27:38;19.73;;;12.70;;
11675;SDS011;5894;42.768;23.404;2024-02-23T04:30:06;16.93;;;13.30;;
11675;SDS011;5894;42.768;23.404;2024-02-23T04:32:34;26.87;;;17.30;;
11675;SDS011;5894;42.768;23.404;2024-02-23T04:35:01;21.53;;;13.87;;
11675;SDS011;5894;42.768;23.404;2024-02-23T04:37:28;21.17;;;13.50;;
11675;SDS011;5894;42.768;23.404;2024-02-23T04:39:55;21.90;;;13.10;;
11675;SDS011;5894;42.768;23.404;2024-02-23T04:42:23;25.83;;;13.47;;
11675;SDS011;5894;42.768;23.404;2024-02-23T04:44:51;20.07;;;13.83;;
11675;SDS011;5894;42.768;23.404;2024-02-23T04:47:19;15.50;;;11.83;;
11675;SDS011;5894;42.768;23.404;2024-02-23T04:49:46;16.30;;;11.17;;
11675;SDS011;5894;42.768;23.404;2024-02-23T04:52:14;14.13;;;10.80;;
11675;SDS011;5894;42.768;23.404;2024-02-23T04:54:41;13.03;;;9.70;;
11675;SDS011;5894;42.768;23.404;2024-02-23T04:57:09;17.53;;;13.33;;
11675;SDS011;5894;42.768;23.404;2024-02-23T04:59:38;16.57;;;9.60;;
11675;SDS011;5894;42.768;23.404;2024-02-23T05:02:05;15.37;;;11.37;;
11675;SDS011;5894;42.768;23.404;2024-02-23T05:04:32;17.20;;;11.57;;
11675;SDS011;5894;42.768;23.404;2024-02-23T05:06:59;18.73;;;11.80;;
11675;SDS011;5894;42.768;23.404;2024-02-23T05:09:27;17.03;;;12.40;;
11675;SDS011;5894;42.768;23.404;2024-02-23T05:11:54;15.33;;;10.50;;
11675;SDS011;5894;42.768;23.404;2024-02-23T05:14:21;15.23;;;11.07;;
11675;SDS011;5894;42.768;23.404;2024-02-23T05:16:50;13.23;;;9.57;;
11675;SDS011;5894;42.768;23.404;2024-02-23T05:19:17;15.00;;;10.53;;
11675;SDS011;5894;42.768;23.404;2024-02-23T05:21:44;18.00;;;10.50;;
11675;SDS011;5894;42.768;23.404;2024-02-23T05:24:11;14.03;;;10.27;;
11675;SDS011;5894;42.768;23.404;2024-02-23T05:26:38;14.80;;;10.37;;
11675;SDS011;5894;42.768;23.404;2024-02-23T05:29:05;14.10;;;10.77;;
11675;SDS011;5894;42.768;23.404;2024-02-23T05:31:45;13.97;;;9.37;;
11675;SDS011;5894;42.768;23.404;2024-02-23T05:34:15;15.73;;;10.20;;
11675;SDS011;5894;42.768;23.404;2024-02-23T05:36:42;13.90;;;9.67;;
11675;SDS011;5894;42.768;23.404;2024-02-23T05:39:09;18.70;;;11.30;;
11675;SDS011;5894;42.768;23.404;2024-02-23T05:41:36;13.90;;;10.70;;
11675;SDS011;5894;42.768;23.404;2024-02-23T05:44:03;16.03;;;11.47;;
11675;SDS011;5894;42.768;23.404;2024-02-23T05:46:31;17.27;;;11.60;;
11675;SDS011;5894;42.768;23.404;2024-02-23T05:48:58;25.73;;;11.63;;
11675;SDS011;5894;42.768;23.404;2024-02-23T05:51:27;18.77;;;11.47;;
11675;SDS011;5894;42.768;23.404;2024-02-23T05:53:55;23.10;;;11.30;;
11675;SDS011;5894;42.768;23.404;2024-02-23T05:56:23;59.87;;;25.37;;
11675;SDS011;5894;42.768;23.404;2024-02-23T05:58:51;53.77;;;25.17;;
11675;SDS011;5894;42.768;23.404;2024-02-23T06:01:18;52.37;;;23.90;;
11675;SDS011;5894;42.768;23.404;2024-02-23T06:03:45;43.77;;;19.77;;
11675;SDS011;5894;42.768;23.404;2024-02-23T06:06:12;65.23;;;32.83;;
11675;SDS011;5894;42.768;23.404;2024-02-23T06:08:41;40.10;;;23.60;;
11675;SDS011;5894;42.768;23.404;2024-02-23T06:11:09;50.80;;;26.87;;
11675;SDS011;5894;42.768;23.404;2024-02-23T06:13:36;45.07;;;26.73;;
11675;SDS011;5894;42.768;23.404;2024-02-23T06:16:03;44.53;;;25.13;;
11675;SDS011;5894;42.768;23.404;2024-02-23T06:18:30;40.50;;;24.43;;
11675;SDS011;5894;42.768;23.404;2024-02-23T06:20:57;52.50;;;31.03;;
11675;SDS011;5894;42.768;23.404;2024-02-23T06:23:24;55.83;;;33.80;;
11675;SDS011;5894;42.768;23.404;2024-02-23T06:25:53;41.47;;;27.20;;
11675;SDS011;5894;42.768;23.404;2024-02-23T06:28:20;35.93;;;22.73;;
11675;SDS011;5894;42.768;23.404;2024-02-23T06:30:47;37.90;;;23.63;;
11675;SDS011;5894;42.768;23.404;2024-02-23T06:33:14;25.43;;;17.20;;
11675;SDS011;5894;42.768;23.404;2024-02-23T06:35:42;29.60;;;19.77;;
11675;SDS011;5894;42.768;23.404;2024-02-23T06:38:09;31.63;;;21.23;;
11675;SDS011;5894;42.768;23.404;2024-02-23T06:40:36;43.27;;;29.93;;
11675;SDS011;5894;42.768;23.404;2024-02-23T06:43:04;46.90;;;31.30;;
11675;SDS011;5894;42.768;23.404;2024-02-23T06:45:31;29.10;;;21.73;;
11675;SDS011;5894;42.768;23.404;2024-02-23T06:47:58;35.47;;;24.87;;
11675;SDS011;5894;42.768;23.404;2024-02-23T06:50:25;29.47;;;21.93;;
11675;SDS011;5894;42.768;23.404;2024-02-23T06:52:52;28.70;;;20.50;;
11675;SDS011;5894;42.768;23.404;2024-02-23T06:55:19;53.33;;;30.40;;
11675;SDS011;5894;42.768;23.404;2024-02-23T06:57:46;69.23;;;37.07;;
11675;SDS011;5894;42.768;23.404;2024-02-23T07:00:15;67.53;;;38.03;;
11675;SDS011;5894;42.768;23.404;2024-02-23T07:02:42;72.83;;;37.23;;
11675;SDS011;5894;42.768;23.404;2024-02-23T07:05:09;57.80;;;31.67;;
11675;SDS011;5894;42.768;23.404;2024-02-23T07:07:36;41.87;;;25.03;;
11675;SDS011;5894;42.768;23.404;2024-02-23T07:10:02;32.70;;;19.57;;
11675;SDS011;5894;42.768;23.404;2024-02-23T07:12:30;28.20;;;17.77;;
11675;SDS011;5894;42.768;23.404;2024-02-23T07:14:57;24.97;;;16.70;;
11675;SDS011;5894;42.768;23.404;2024-02-23T07:17:25;21.60;;;15.60;;
11675;SDS011;5894;42.768;23.404;2024-02-23T07:19:53;26.58;;;15.55;;
11675;SDS011;5894;42.768;23.404;2024-02-23T07:22:28;21.03;;;14.67;;
11675;SDS011;5894;42.768;23.404;2024-02-23T07:24:55;17.00;;;11.40;;
11675;SDS011;5894;42.768;23.404;2024-02-23T07:27:22;16.43;;;11.87;;
11675;SDS011;5894;42.768;23.404;2024-02-23T07:29:49;19.37;;;12.03;;
11675;SDS011;5894;42.768;23.404;2024-02-23T07:32:16;16.75;;;12.10;;
11675;SDS011;5894;42.768;23.404;2024-02-23T07:34:44;16.90;;;11.87;;
11675;SDS011;5894;42.768;23.404;2024-02-23T07:37:13;18.33;;;12.43;;
11675;SDS011;5894;42.768;23.404;2024-02-23T07:39:40;20.05;;;12.30;;
11675;SDS011;5894;42.768;23.404;2024-02-23T07:42:07;16.10;;;11.13;;
11675;SDS011;5894;42.768;23.404;2024-02-23T07:44:35;17.90;;;12.07;;
11675;SDS011;5894;42.768;23.404;2024-02-23T07:47:04;20.15;;;11.35;;
11675;SDS011;5894;42.768;23.404;2024-02-23T07:49:31;14.60;;;10.98;;
11675;SDS011;5894;42.768;23.404;2024-02-23T07:51:59;16.95;;;10.98;;
11675;SDS011;5894;42.768;23.404;2024-02-23T07:54:27;16.23;;;11.10;;
11675;SDS011;5894;42.768;23.404;2024-02-23T07:56:54;20.80;;;12.15;;
11675;SDS011;5894;42.768;23.404;2024-02-23T07:59:22;18.98;;;12.45;;
11675;SDS011;5894;42.768;23.404;2024-02-23T08:01:49;18.50;;;11.32;;
11675;SDS011;5894;42.768;23.404;2024-02-23T08:04:18;18.40;;;10.90;;
11675;SDS011;5894;42.768;23.404;2024-02-23T08:06:45;18.67;;;10.68;;
11675;SDS011;5894;42.768;23.404;2024-02-23T08:09:13;15.90;;;10.75;;
11675;SDS011;5894;42.768;23.404;2024-02-23T08:11:40;16.13;;;10.95;;
11675;SDS011;5894;42.768;23.404;2024-02-23T08:14:07;17.67;;;11.13;;
11675;SDS011;5894;42.768;23.404;2024-02-23T08:16:34;15.52;;;11.07;;
11675;SDS011;5894;42.768;23.404;2024-02-23T08:19:02;16.15;;;11.43;;
11675;SDS011;5894;42.768;23.404;2024-02-23T08:21:29;12.90;;;9.60;;
11675;SDS011;5894;42.768;23.404;2024-02-23T08:23:57;19.70;;;9.88;;
11675;SDS011;5894;42.768;23.404;2024-02-23T08:26:25;14.73;;;9.98;;
11675;SDS011;5894;42.768;23.404;2024-02-23T08:28:52;17.90;;;9.82;;
11675;SDS011;5894;42.768;23.404;2024-02-23T08:31:19;13.43;;;8.93;;
11675;SDS011;5894;42.768;23.404;2024-02-23T08:33:46;16.50;;;9.48;;
11675;SDS011;5894;42.768;23.404;2024-02-23T08:36:14;14.57;;;10.15;;
11675;SDS011;5894;42.768;23.404;2024-02-23T08:38:41;11.88;;;9.00;;
11675;SDS011;5894;42.768;23.404;2024-02-23T08:41:08;26.50;;;10.25;;
11675;SDS011;5894;42.768;23.404;2024-02-23T08:43:37;13.80;;;8.80;;
11675;SDS011;5894;42.768;23.404;2024-02-23T08:46:04;17.75;;;8.80;;
11675;SDS011;5894;42.768;23.404;2024-02-23T08:48:31;10.98;;;8.25;;
11675;SDS011;5894;42.768;23.404;2024-02-23T08:50:58;18.13;;;8.65;;
11675;SDS011;5894;42.768;23.404;2024-02-23T08:53:25;17.00;;;8.18;;
11675;SDS011;5894;42.768;23.404;2024-02-23T08:55:53;12.05;;;7.53;;
11675;SDS011;5894;42.768;23.404;2024-02-23T08:58:20;26.95;;;8.75;;
11675;SDS011;5894;42.768;23.404;2024-02-23T09:00:48;14.35;;;7.70;;
11675;SDS011;5894;42.768;23.404;2024-02-23T09:03:15;18.55;;;6.65;;
11675;SDS011;5894;42.768;23.404;2024-02-23T09:05:42;8.07;;;6.07;;
11675;SDS011;5894;42.768;23.404;2024-02-23T09:08:12;7.30;;;5.80;;
11675;SDS011;5894;42.768;23.404;2024-02-23T09:10:39;9.52;;;6.72;;
11675;SDS011;5894;42.768;23.404;2024-02-23T09:13:06;7.72;;;5.88;;
11675;SDS011;5894;42.768;23.404;2024-02-23T09:15:33;10.20;;;6.55;;
11675;SDS011;5894;42.768;23.404;2024-02-23T09:18:02;9.88;;;6.53;;
11675;SDS011;5894;42.768;23.404;2024-02-23T09:20:29;7.50;;;5.63;;
11675;SDS011;5894;42.768;23.404;2024-02-23T09:22:57;6.40;;;5.10;;
11675;SDS011;5894;42.768;23.404;2024-02-23T09:25:24;6.70;;;4.70;;
11675;SDS011;5894;42.768;23.404;2024-02-23T09:27:51;6.43;;;4.75;;
11675;SDS011;5894;42.768;23.404;2024-02-23T09:30:18;6.28;;;5.20;;
11675;SDS011;5894;42.768;23.404;2024-02-23T09:32:46;8.10;;;5.10;;
11675;SDS011;5894;42.768;23.404;2024-02-23T09:35:14;7.50;;;5.40;;
11675;SDS011;5894;42.768;23.404;2024-02-23T09:37:41;6.45;;;5.40;;
11675;SDS011;5894;42.768;23.404;2024-02-23T09:40:09;6.53;;;5.40;;
11675;SDS011;5894;42.768;23.404;2024-02-23T09:42:37;6.68;;;4.80;;
11675;SDS011;5894;42.768;23.404;2024-02-23T09:45:05;9.73;;;5.03;;
11675;SDS011;5894;42.768;23.404;2024-02-23T09:47:34;9.55;;;5.40;;
11675;SDS011;5894;42.768;23.404;2024-02-23T09:50:02;8.68;;;5.78;;
11675;SDS011;5894;42.768;23.404;2024-02-23T09:52:32;5.88;;;5.05;;
11675;SDS011;5894;42.768;23.404;2024-02-23T09:54:59;7.55;;;5.80;;
11675;SDS011;5894;42.768;23.404;2024-02-23T09:57:29;7.38;;;6.00;;
11675;SDS011;5894;42.768;23.404;2024-02-23T09:59:56;6.85;;;4.35;;
11675;SDS011;5894;42.768;23.404;2024-02-23T10:02:23;5.30;;;3.92;;
11675;SDS011;5894;42.768;23.404;2024-02-23T10:04:51;6.53;;;4.68;;
11675;SDS011;5894;42.768;23.404;2024-02-23T10:07:22;6.25;;;4.32;;
11675;SDS011;5894;42.768;23.404;2024-02-23T10:09:52;5.75;;;4.20;;
11675;SDS011;5894;42.768;23.404;2024-02-23T10:12:20;4.85;;;4.10;;
11675;SDS011;5894;42.768;23.404;2024-02-23T10:14:48;6.10;;;4.82;;
11675;SDS011;5894;42.768;23.404;2024-02-23T10:17:15;5.40;;;4.10;;
11675;SDS011;5894;42.768;23.404;2024-02-23T10:19:43;6.40;;;4.07;;
11675;SDS011;5894;42.768;23.404;2024-02-23T10:22:11;5.22;;;4.20;;
11675;SDS011;5894;42.768;23.404;2024-02-23T10:24:38;5.38;;;4.05;;
11675;SDS011;5894;42.768;23.404;2024-02-23T10:27:07;6.30;;;4.20;;
11675;SDS011;5894;42.768;23.404;2024-02-23T10:29:34;5.65;;;4.20;;
11675;SDS011;5894;42.768;23.404;2024-02-23T10:32:01;5.32;;;3.83;;
11675;SDS011;5894;42.768;23.404;2024-02-23T10:34:29;9.95;;;4.85;;
11675;SDS011;5894;42.768;23.404;2024-02-23T10:36:57;3.80;;;2.60;;
11675;SDS011;5894;42.768;23.404;2024-02-23T10:39:24;2.83;;;2.17;;
11675;SDS011;5894;42.768;23.404;2024-02-23T10:41:56;3.10;;;2.28;;
11675;SDS011;5894;42.768;23.404;2024-02-23T10:44:26;4.15;;;2.60;;
11675;SDS011;5894;42.768;23.404;2024-02-23T10:46:55;3.08;;;2.17;;
11675;SDS011;5894;42.768;23.404;2024-02-23T10:49:24;3.40;;;2.50;;
11675;SDS011;5894;42.768;23.404;2024-02-23T10:51:52;2.53;;;2.30;;
11675;SDS011;5894;42.768;23.404;2024-02-23T10:54:20;3.60;;;2.75;;
11675;SDS011;5894;42.768;23.404;2024-02-23T10:56:49;2.63;;;2.33;;
11675;SDS011;5894;42.768;23.404;2024-02-23T10:59:17;4.07;;;3.67;;
11675;SDS011;5894;42.768;23.404;2024-02-23T11:01:47;4.85;;;3.70;;
11675;SDS011;5894;42.768;23.404;2024-02-23T11:04:16;3.63;;;2.10;;
11675;SDS011;5894;42.768;23.404;2024-02-23T11:06:48;6.60;;;2.30;;
11675;SDS011;5894;42.768;23.404;2024-02-23T11:09:16;4.30;;;2.78;;
11675;SDS011;5894;42.768;23.404;2024-02-23T11:11:50;3.25;;;2.75;;
11675;SDS011;5894;42.768;23.404;2024-02-23T11:14:28;5.15;;;3.17;;
11675;SDS011;5894;42.768;23.404;2024-02-23T11:16:59;3.28;;;2.50;;
11675;SDS011;5894;42.768;23.404;2024-02-23T11:19:32;3.13;;;2.33;;
11675;SDS011;5894;42.768;23.404;2024-02-23T11:22:01;4.85;;;3.17;;
11675;SDS011;5894;42.768;23.404;2024-02-23T11:24:29;2.65;;;2.25;;
11675;SDS011;5894;42.768;23.404;2024-02-23T11:26:56;3.63;;;1.88;;
11675;SDS011;5894;42.768;23.404;2024-02-23T11:29:25;2.53;;;1.98;;
11675;SDS011;5894;42.768;23.404;2024-02-23T11:31:54;5.45;;;2.83;;
11675;SDS011;5894;42.768;23.404;2024-02-23T11:34:28;3.72;;;2.40;;
11675;SDS011;5894;42.768;23.404;2024-02-23T11:36:55;3.17;;;2.30;;
11675;SDS011;5894;42.768;23.404;2024-02-23T11:39:25;2.97;;;2.00;;
11675;SDS011;5894;42.768;23.404;2024-02-23T11:41:53;3.08;;;2.05;;
11675;SDS011;5894;42.768;23.404;2024-02-23T11:44:20;5.00;;;2.75;;
11675;SDS011;5894;42.768;23.404;2024-02-23T11:46:47;8.00;;;3.58;;
11675;SDS011;5894;42.768;23.404;2024-02-23T11:49:14;5.40;;;3.40;;
11675;SDS011;5894;42.768;23.404;2024-02-23T11:51:43;2.85;;;2.55;;
11675;SDS011;5894;42.768;23.404;2024-02-23T11:54:11;3.30;;;1.98;;
11675;SDS011;5894;42.768;23.404;2024-02-23T11:56:39;3.22;;;1.80;;
11675;SDS011;5894;42.768;23.404;2024-02-23T11:59:07;2.05;;;1.77;;
11675;SDS011;5894;42.768;23.404;2024-02-23T12:01:35;2.00;;;1.80;;
11675;SDS011;5894;42.768;23.404;2024-02-23T12:04:02;2.40;;;1.95;;
11675;SDS011;5894;42.768;23.404;2024-02-23T12:06:29;1.98;;;1.73;;
11675;SDS011;5894;42.768;23.404;2024-02-23T12:08:59;2.38;;;1.63;;
11675;SDS011;5894;42.768;23.404;2024-02-23T12:11:27;2.90;;;2.50;;
11675;SDS011;5894;42.768;23.404;2024-02-23T12:13:55;3.38;;;1.92;;
11675;SDS011;5894;42.768;23.404;2024-02-23T12:16:22;2.30;;;1.70;;
11675;SDS011;5894;42.768;23.404;2024-02-23T12:18:53;2.38;;;1.92;;
11675;SDS011;5894;42.768;23.404;2024-02-23T12:21:20;3.60;;;1.88;;
11675;SDS011;5894;42.768;23.404;2024-02-23T12:23:49;2.83;;;1.70;;
11675;SDS011;5894;42.768;23.404;2024-02-23T12:26:18;2.83;;;1.70;;
11675;SDS011;5894;42.768;23.404;2024-02-23T12:28:46;2.20;;;1.98;;
11675;SDS011;5894;42.768;23.404;2024-02-23T12:31:13;5.47;;;2.08;;
11675;SDS011;5894;42.768;23.404;2024-02-23T12:33:40;2.78;;;1.80;;
11675;SDS011;5894;42.768;23.404;2024-02-23T12:36:13;3.92;;;2.25;;
11675;SDS011;5894;42.768;23.404;2024-02-23T12:38:40;2.92;;;2.40;;
11675;SDS011;5894;42.768;23.404;2024-02-23T12:41:07;2.28;;;2.08;;
11675;SDS011;5894;42.768;23.404;2024-02-23T12:43:36;4.22;;;2.85;;
11675;SDS011;5894;42.768;23.404;2024-02-23T12:46:03;5.00;;;3.40;;
11675;SDS011;5894;42.768;23.404;2024-02-23T12:48:32;10.20;;;6.28;;
11675;SDS011;5894;42.768;23.404;2024-02-23T12:50:59;3.78;;;2.17;;
11675;SDS011;5894;42.768;23.404;2024-02-23T12:53:33;5.40;;;3.45;;
11675;SDS011;5894;42.768;23.404;2024-02-23T12:56:05;2.60;;;1.98;;
11675;SDS011;5894;42.768;23.404;2024-02-23T12:58:34;1.90;;;1.70;;
11675;SDS011;5894;42.768;23.404;2024-02-23T13:01:03;2.08;;;1.80;;
11675;SDS011;5894;42.768;23.404;2024-02-23T13:03:32;3.17;;;2.30;;
11675;SDS011;5894;42.768;23.404;2024-02-23T13:05:59;3.35;;;2.40;;
11675;SDS011;5894;42.768;23.404;2024-02-23T13:08:27;3.58;;;1.60;;
11675;SDS011;5894;42.768;23.404;2024-02-23T13:10:54;1.85;;;1.58;;
11675;SDS011;5894;42.768;23.404;2024-02-23T13:13:21;3.25;;;2.80;;
11675;SDS011;5894;42.768;23.404;2024-02-23T13:15:51;14.57;;;7.40;;
11675;SDS011;5894;42.768;23.404;2024-02-23T13:18:19;35.15;;;28.80;;
11675;SDS011;5894;42.768;23.404;2024-02-23T13:20:46;10.93;;;6.78;;
11675;SDS011;5894;42.768;23.404;2024-02-23T13:23:13;4.30;;;2.67;;
11675;SDS011;5894;42.768;23.404;2024-02-23T13:25:41;22.80;;;12.95;;
11675;SDS011;5894;42.768;23.404;2024-02-23T13:28:08;11.00;;;7.38;;
11675;SDS011;5894;42.768;23.404;2024-02-23T13:30:36;58.70;;;31.52;;
11675;SDS011;5894;42.768;23.404;2024-02-23T13:33:05;23.20;;;13.00;;
11675;SDS011;5894;42.768;23.404;2024-02-23T13:35:33;7.22;;;4.68;;
11675;SDS011;5894;42.768;23.404;2024-02-23T13:38:00;5.03;;;3.78;;
11675;SDS011;5894;42.768;23.404;2024-02-23T13:40:28;3.13;;;2.35;;
11675;SDS011;5894;42.768;23.404;2024-02-23T13:42:56;11.80;;;7.68;;
11675;SDS011;5894;42.768;23.404;2024-02-23T13:45:23;106.65;;;67.18;;
11675;SDS011;5894;42.768;23.404;2024-02-23T13:47:56;105.75;;;62.33;;
11675;SDS011;5894;42.768;23.404;2024-02-23T13:50:26;39.08;;;22.33;;
11675;SDS011;5894;42.768;23.404;2024-02-23T13:52:54;16.63;;;10.75;;
11675;SDS011;5894;42.768;23.404;2024-02-23T13:55:21;25.83;;;16.23;;
11675;SDS011;5894;42.768;23.404;2024-02-23T13:57:48;11.32;;;7.43;;
11675;SDS011;5894;42.768;23.404;2024-02-23T14:00:16;32.63;;;19.00;;
11675;SDS011;5894;42.768;23.404;2024-02-23T14:02:44;31.02;;;17.75;;
11675;SDS011;5894;42.768;23.404;2024-02-23T14:05:12;28.10;;;15.50;;
11675;SDS011;5894;42.768;23.404;2024-02-23T14:07:42;3.78;;;2.67;;
11675;SDS011;5894;42.768;23.404;2024-02-23T14:10:09;29.20;;;18.33;;
11675;SDS011;5894;42.768;23.404;2024-02-23T14:12:36;30.27;;;18.60;;
11675;SDS011;5894;42.768;23.404;2024-02-23T14:15:04;18.33;;;12.05;;
11675;SDS011;5894;42.768;23.404;2024-02-23T14:17:32;7.93;;;6.28;;
11675;SDS011;5894;42.768;23.404;2024-02-23T14:19:59;12.43;;;9.93;;
11675;SDS011;5894;42.768;23.404;2024-02-23T14:22:28;4.97;;;4.05;;
11675;SDS011;5894;42.768;23.404;2024-02-23T14:24:57;5.68;;;3.50;;
11675;SDS011;5894;42.768;23.404;2024-02-23T14:27:24;13.98;;;8.13;;
11675;SDS011;5894;42.768;23.404;2024-02-23T14:29:52;52.35;;;30.60;;
11675;SDS011;5894;42.768;23.404;2024-02-23T14:32:19;39.25;;;21.20;;
11675;SDS011;5894;42.768;23.404;2024-02-23T14:34:47;37.55;;;21.45;;
11675;SDS011;5894;42.768;23.404;2024-02-23T14:37:15;65.85;;;38.47;;